Shermans Dale, Pennsylvania
Current Conditions -  °F | °C
As of 6:56 AM on Friday 28 Nov 2014 (Local Time) from KCXY Reporting Station
Broken Clouds Broken Clouds  
Wind Chill: 24°   Ceiling: 8000
Heat Index: 30°   Visibility: 10mi
Dew Point: 20°   Wind: 6mph
Humidity: 66%   Direction: 250°WSW
Pressure: 30.24"   Gusts: NA
Location:  40.32°N, 77.17°W
Report Text: KCXY 281156Z 25005KT 10SM BKN080 M01/M07 A3024 RMK AO2 SLP244 T10111067 10006 21017 53028
Loading
Personal Weather Stations






























Interactive Weather Map New forecast layout! Learn more

10-Day Weather Forecast

Advertisements
Track Severe Weather on mobile